createdAt,value
2018-05-11T00:00:47.106Z,14.60
2018-05-11T00:03:14.558Z,14.50
2018-05-11T00:05:41.999Z,14.60
2018-05-11T00:08:09.543Z,14.60
2018-05-11T00:10:36.967Z,14.60
2018-05-11T00:13:04.429Z,14.60
2018-05-11T00:15:31.860Z,14.60
2018-05-11T00:17:59.694Z,14.60
2018-05-11T00:20:27.147Z,14.60
2018-05-11T00:22:54.618Z,14.60
2018-05-11T00:25:22.056Z,14.60
2018-05-11T00:27:49.568Z,14.60
2018-05-11T00:30:17.044Z,14.50
2018-05-11T00:32:44.496Z,14.50
2018-05-11T00:35:11.997Z,14.50
2018-05-11T00:37:39.453Z,14.50
2018-05-11T00:40:06.962Z,14.50
2018-05-11T00:42:34.742Z,14.50
2018-05-11T00:45:02.197Z,14.40
2018-05-11T00:47:30.054Z,14.40
2018-05-11T00:49:57.484Z,14.30
2018-05-11T00:52:24.945Z,14.30
2018-05-11T00:54:52.417Z,14.30
2018-05-11T00:57:19.933Z,14.20
2018-05-11T00:59:47.401Z,14.30
2018-05-11T01:02:14.858Z,14.20
2018-05-11T01:04:42.333Z,14.20
2018-05-11T01:07:10.184Z,14.20
2018-05-11T01:09:37.635Z,14.20
2018-05-11T01:12:05.092Z,14.20
2018-05-11T01:14:32.637Z,14.10
2018-05-11T01:17:00.190Z,14.10
2018-05-11T01:19:27.569Z,14.10
2018-05-11T01:21:55.025Z,14.10
2018-05-11T01:24:22.826Z,14.10
2018-05-11T01:26:50.277Z,14.00
2018-05-11T01:29:17.754Z,14.00
2018-05-11T01:31:45.210Z,14.00
2018-05-11T01:34:12.661Z,13.90
2018-05-11T01:36:40.133Z,13.90
2018-05-11T01:39:07.813Z,13.80
2018-05-11T01:41:35.266Z,13.70
2018-05-11T01:44:02.717Z,13.60
2018-05-11T01:46:30.159Z,13.60
2018-05-11T01:48:57.675Z,13.50
2018-05-11T01:51:25.068Z,13.40
2018-05-11T01:53:52.514Z,13.30
2018-05-11T01:56:19.963Z,13.20
2018-05-11T01:58:47.441Z,13.10
2018-05-11T02:01:15.029Z,13.00
2018-05-11T02:03:42.512Z,13.00
2018-05-11T02:06:09.952Z,12.80
2018-05-11T02:08:37.503Z,12.80
2018-05-11T02:11:04.946Z,12.80
2018-05-11T02:13:32.439Z,12.70
2018-05-11T02:15:59.883Z,12.70
2018-05-11T02:18:27.318Z,12.70
2018-05-11T02:20:54.856Z,12.80
2018-05-11T02:23:22.211Z,12.70
2018-05-11T02:25:49.759Z,12.70
2018-05-11T02:28:17.139Z,12.70
2018-05-11T02:30:44.584Z,12.60
2018-05-11T02:33:12.047Z,12.60
2018-05-11T02:35:39.487Z,12.50
2018-05-11T02:38:07.048Z,12.50
2018-05-11T02:40:34.460Z,12.50
2018-05-11T02:43:02.265Z,12.50
2018-05-11T02:45:29.709Z,12.60
2018-05-11T02:47:57.224Z,12.50
2018-05-11T02:50:24.687Z,12.50
2018-05-11T02:52:52.150Z,12.50
2018-05-11T02:55:20.012Z,12.40
2018-05-11T02:57:47.466Z,12.40
2018-05-11T03:00:14.909Z,12.30
2018-05-11T03:02:42.434Z,12.30
2018-05-11T03:05:09.860Z,12.20
2018-05-11T03:07:37.407Z,12.20
2018-05-11T03:10:04.879Z,12.20
2018-05-11T03:12:32.323Z,12.10
2018-05-11T03:14:59.768Z,12.10
2018-05-11T03:17:27.203Z,12.00
2018-05-11T03:19:54.643Z,11.90
2018-05-11T03:22:22.105Z,11.90
2018-05-11T03:24:49.544Z,11.80
2018-05-11T03:27:16.996Z,11.70
2018-05-11T03:29:44.435Z,11.70
2018-05-11T03:32:11.868Z,11.70
2018-05-11T03:34:39.396Z,11.70
2018-05-11T03:37:06.832Z,11.60
2018-05-11T03:39:34.276Z,11.60
2018-05-11T03:42:01.857Z,11.50
2018-05-11T03:44:29.248Z,11.60
2018-05-11T03:46:56.717Z,11.60
2018-05-11T03:49:24.160Z,11.60
2018-05-11T03:51:51.617Z,11.60
2018-05-11T03:54:19.055Z,11.60
2018-05-11T03:56:46.504Z,11.60
2018-05-11T03:59:13.936Z,11.50
2018-05-11T04:01:53.086Z,11.50
2018-05-11T04:04:33.409Z,11.40
2018-05-11T04:07:12.603Z,11.40
2018-05-11T04:09:40.813Z,11.40
2018-05-11T04:12:08.264Z,11.40
2018-05-11T04:14:36.057Z,11.40
2018-05-11T04:17:03.924Z,11.40
2018-05-11T04:19:31.435Z,11.50
2018-05-11T04:21:58.888Z,11.50
2018-05-11T04:24:27.103Z,11.50
2018-05-11T04:26:54.601Z,11.50
2018-05-11T04:29:22.047Z,11.60
2018-05-11T04:31:49.491Z,11.60
2018-05-11T04:34:16.927Z,11.60
2018-05-11T04:36:44.367Z,11.60
2018-05-11T04:39:11.900Z,11.60
2018-05-11T04:41:39.350Z,11.70
2018-05-11T04:44:06.813Z,11.70
2018-05-11T04:46:34.256Z,11.70
2018-05-11T04:49:01.703Z,11.70
2018-05-11T04:51:29.244Z,11.80
2018-05-11T04:53:56.692Z,11.90
2018-05-11T04:56:24.149Z,11.90
2018-05-11T04:58:51.674Z,12.00
2018-05-11T05:01:19.490Z,12.10
2018-05-11T05:03:46.927Z,12.10
2018-05-11T05:06:14.447Z,12.20
2018-05-11T05:08:41.883Z,12.30
2018-05-11T05:11:09.345Z,12.40
2018-05-11T05:13:36.805Z,12.50
2018-05-11T05:16:04.244Z,12.60
2018-05-11T05:18:31.687Z,12.70
2018-05-11T05:20:59.140Z,12.70
2018-05-11T05:23:26.696Z,12.80
2018-05-11T05:25:54.135Z,12.90
2018-05-11T05:28:21.579Z,13.00
2018-05-11T05:30:49.011Z,13.10
2018-05-11T05:33:16.489Z,13.10
2018-05-11T05:35:43.935Z,13.20
2018-05-11T05:38:11.478Z,13.30
2018-05-11T05:40:38.912Z,13.40
2018-05-11T05:43:06.352Z,13.50
2018-05-11T05:45:33.799Z,13.60
2018-05-11T05:48:01.236Z,13.70
2018-05-11T05:50:28.688Z,13.80
2018-05-11T05:52:56.159Z,13.90
2018-05-11T05:55:23.609Z,13.90
2018-05-11T05:57:51.103Z,14.00
2018-05-11T06:00:18.616Z,14.10
2018-05-11T06:02:46.090Z,14.20
2018-05-11T06:05:13.536Z,14.30
2018-05-11T06:07:40.971Z,14.50
2018-05-11T06:10:08.467Z,14.60
2018-05-11T06:12:35.908Z,14.70
2018-05-11T06:15:03.351Z,14.80
2018-05-11T06:17:30.799Z,14.90
2018-05-11T06:19:58.232Z,15.00
2018-05-11T06:22:25.738Z,15.10
2018-05-11T06:24:53.207Z,15.20
2018-05-11T06:27:20.703Z,15.30
2018-05-11T06:29:48.139Z,15.40
2018-05-11T06:32:15.584Z,15.40
2018-05-11T06:34:43.280Z,15.60
2018-05-11T06:37:10.723Z,15.60
2018-05-11T06:39:38.324Z,15.70
2018-05-11T06:42:06.331Z,15.70
2018-05-11T06:44:33.789Z,15.70
2018-05-11T06:47:02.354Z,15.60
2018-05-11T06:49:29.880Z,15.60
2018-05-11T06:51:57.342Z,15.70
2018-05-11T06:54:24.800Z,15.70
2018-05-11T06:56:52.604Z,15.70
2018-05-11T06:59:20.557Z,15.70
2018-05-11T07:01:48.441Z,15.70
2018-05-11T07:04:15.919Z,15.80
2018-05-11T07:06:43.673Z,15.90
2018-05-11T07:09:11.137Z,15.90
2018-05-11T07:11:39.092Z,16.00
2018-05-11T07:14:06.983Z,16.10
2018-05-11T07:16:34.411Z,16.20
2018-05-11T07:19:02.313Z,16.20
2018-05-11T07:21:30.349Z,16.30
2018-05-11T07:23:58.425Z,16.40
2018-05-11T07:26:26.457Z,16.50
2018-05-11T07:28:54.572Z,16.50
2018-05-11T07:31:22.819Z,16.70
2018-05-11T07:33:51.516Z,16.60
2018-05-11T07:36:19.647Z,16.80
2018-05-11T07:38:47.491Z,16.90
2018-05-11T07:41:15.713Z,17.00
2018-05-11T07:43:43.378Z,17.10
2018-05-11T07:46:11.274Z,17.10
2018-05-11T07:48:39.829Z,17.20
2018-05-11T07:51:07.496Z,17.30
2018-05-11T07:53:35.565Z,17.40
2018-05-11T07:56:03.341Z,17.50
2018-05-11T07:58:31.351Z,17.60
2018-05-11T08:00:59.549Z,17.60
2018-05-11T08:03:27.467Z,17.70
2018-05-11T08:05:55.464Z,17.80
2018-05-11T08:08:23.118Z,17.90
2018-05-11T08:10:51.094Z,18.00
2018-05-11T08:13:19.390Z,18.00
2018-05-11T08:15:47.370Z,18.00
2018-05-11T08:18:15.483Z,17.90
2018-05-11T08:20:43.629Z,18.00
2018-05-11T08:23:11.654Z,18.10
2018-05-11T08:25:39.524Z,18.20
2018-05-11T08:28:07.530Z,18.30
2018-05-11T08:30:35.203Z,18.40
2018-05-11T08:33:03.172Z,18.50
2018-05-11T08:35:30.928Z,18.60
2018-05-11T08:37:58.470Z,18.70
2018-05-11T08:40:25.932Z,18.70
2018-05-11T08:42:53.602Z,18.80
2018-05-11T08:45:21.223Z,18.90
2018-05-11T08:47:49.428Z,19.20
2018-05-11T08:50:17.651Z,19.10
2018-05-11T08:52:45.447Z,19.30
2018-05-11T08:55:13.090Z,19.30
2018-05-11T08:57:40.552Z,19.50
2018-05-11T09:00:08.480Z,19.60
2018-05-11T09:02:35.964Z,19.70
2018-05-11T09:05:03.459Z,19.80
2018-05-11T09:07:31.609Z,20.00
2018-05-11T09:09:59.480Z,20.10
2018-05-11T09:12:26.921Z,20.20
2018-05-11T09:14:54.494Z,20.30
2018-05-11T09:17:22.462Z,20.50
2018-05-11T09:19:50.285Z,20.60
2018-05-11T09:22:18.132Z,20.70
2018-05-11T09:24:45.568Z,21.00
2018-05-11T09:27:13.519Z,21.30
2018-05-11T09:29:41.152Z,21.70
2018-05-11T09:32:08.554Z,22.40
2018-05-11T09:34:36.603Z,22.80
2018-05-11T09:37:04.448Z,23.40
2018-05-11T09:39:32.686Z,24.00
2018-05-11T09:42:01.730Z,25.20
2018-05-11T09:44:29.390Z,25.10
2018-05-11T09:46:56.991Z,25.60
2018-05-11T09:49:24.583Z,25.80
2018-05-11T09:51:52.124Z,26.00
2018-05-11T09:54:19.566Z,26.50
2018-05-11T09:56:47.695Z,26.90
2018-05-11T09:59:15.758Z,27.60
2018-05-11T10:01:43.467Z,28.00
2018-05-11T10:04:11.493Z,28.30
2018-05-11T10:06:39.219Z,28.60
2018-05-11T10:09:07.444Z,28.90
2018-05-11T10:11:35.751Z,28.90
2018-05-11T10:14:03.721Z,28.70
2018-05-11T10:16:31.271Z,28.70
2018-05-11T10:18:59.164Z,28.50
2018-05-11T10:21:26.613Z,28.50
2018-05-11T10:23:54.403Z,28.90
2018-05-11T10:26:22.236Z,29.20
2018-05-11T10:28:50.660Z,29.50
2018-05-11T10:31:18.192Z,29.70
2018-05-11T10:33:45.624Z,30.20
2018-05-11T10:36:13.507Z,30.80
2018-05-11T10:38:41.648Z,30.90
2018-05-11T10:41:09.555Z,30.70
2018-05-11T10:43:37.757Z,30.50
2018-05-11T10:46:05.645Z,30.10
2018-05-11T10:48:33.633Z,29.80
2018-05-11T10:51:01.005Z,29.70
2018-05-11T10:53:29.260Z,29.00
2018-05-11T10:55:57.215Z,29.30
2018-05-11T10:58:24.651Z,29.70
2018-05-11T11:00:52.659Z,29.90
2018-05-11T11:03:20.544Z,30.20
2018-05-11T11:05:49.108Z,30.40
2018-05-11T11:08:16.891Z,30.40
2018-05-11T11:10:44.760Z,31.00
2018-05-11T11:13:12.770Z,31.70
2018-05-11T11:15:40.577Z,32.30
2018-05-11T11:18:08.247Z,31.70
2018-05-11T11:20:35.676Z,30.90
2018-05-11T11:23:04.224Z,32.00
2018-05-11T11:25:32.729Z,31.90
2018-05-11T11:28:00.242Z,32.60
2018-05-11T11:30:28.251Z,32.10
2018-05-11T11:32:55.685Z,31.80
2018-05-11T11:35:24.605Z,31.80
2018-05-11T11:37:52.061Z,31.40
2018-05-11T11:40:19.667Z,30.70
2018-05-11T11:42:47.248Z,30.50
2018-05-11T11:45:15.705Z,30.00
2018-05-11T11:47:43.669Z,29.00
2018-05-11T11:50:11.724Z,28.60
2018-05-11T11:52:39.392Z,28.90
2018-05-11T11:55:07.660Z,29.10
2018-05-11T11:57:35.827Z,28.50
2018-05-11T12:00:03.613Z,28.10
2018-05-11T12:02:31.525Z,27.50
2018-05-11T12:05:00.737Z,27.20
2018-05-11T12:07:28.734Z,27.20
2018-05-11T12:09:56.693Z,28.10
2018-05-11T12:12:24.414Z,28.70
2018-05-11T12:14:52.306Z,28.70
2018-05-11T12:17:19.814Z,28.40
2018-05-11T12:19:47.684Z,28.10
2018-05-11T12:22:16.529Z,27.50
2018-05-11T12:24:44.656Z,26.90
2018-05-11T12:27:12.091Z,27.00
2018-05-11T12:29:39.824Z,27.90
2018-05-11T12:32:07.853Z,28.20
2018-05-11T12:34:35.703Z,28.20
2018-05-11T12:37:03.830Z,27.90
2018-05-11T12:39:31.545Z,27.70
2018-05-11T12:41:59.382Z,28.00
2018-05-11T12:44:27.213Z,28.40
2018-05-11T12:46:55.571Z,28.70
2018-05-11T12:49:24.062Z,29.10
2018-05-11T12:51:52.791Z,29.00
2018-05-11T12:54:20.716Z,29.40
2018-05-11T12:56:48.809Z,29.00
2018-05-11T12:59:16.484Z,28.30
2018-05-11T13:01:43.927Z,27.80
2018-05-11T13:04:11.382Z,27.30
2018-05-11T13:06:38.827Z,27.10
2018-05-11T13:09:06.282Z,27.60
2018-05-11T13:11:33.749Z,28.10
2018-05-11T13:14:01.249Z,28.30
2018-05-11T13:16:28.700Z,28.20
2018-05-11T13:18:56.136Z,28.50
2018-05-11T13:21:23.585Z,28.10
2018-05-11T13:23:51.012Z,27.40
2018-05-11T13:26:18.485Z,26.70
2018-05-11T13:28:45.931Z,26.20
2018-05-11T13:31:13.516Z,25.90
2018-05-11T13:33:41.376Z,26.20
2018-05-11T13:36:08.813Z,26.40
2018-05-11T13:38:36.253Z,26.10
2018-05-11T13:41:03.694Z,25.70
2018-05-11T13:43:31.899Z,25.10
2018-05-11T13:45:59.924Z,25.00
2018-05-11T13:48:27.542Z,25.60
2018-05-11T13:50:54.920Z,25.70
2018-05-11T13:53:22.371Z,25.60
2018-05-11T13:55:49.803Z,25.60
2018-05-11T13:58:17.269Z,25.40
2018-05-11T14:00:44.702Z,25.30
2018-05-11T14:03:12.189Z,25.20
2018-05-11T14:05:39.596Z,25.10
2018-05-11T14:08:07.050Z,25.00
2018-05-11T14:10:34.528Z,25.40
2018-05-11T14:13:01.977Z,25.90
2018-05-11T14:15:29.496Z,26.90
2018-05-11T14:17:57.323Z,27.70
2018-05-11T14:20:24.790Z,27.60
2018-05-11T14:22:52.253Z,27.20
2018-05-11T14:25:19.689Z,26.90
2018-05-11T14:27:47.168Z,27.00
2018-05-11T14:30:14.631Z,27.90
2018-05-11T14:32:42.088Z,28.90
2018-05-11T14:35:09.540Z,29.80
2018-05-11T14:37:36.992Z,30.10
2018-05-11T14:40:04.513Z,29.80
2018-05-11T14:42:31.958Z,29.50
2018-05-11T14:44:59.396Z,29.50
2018-05-11T14:47:26.843Z,28.80
2018-05-11T14:49:54.268Z,28.30
2018-05-11T14:52:21.860Z,28.00
2018-05-11T14:54:49.383Z,27.70
2018-05-11T14:57:16.750Z,27.60
2018-05-11T14:59:44.957Z,26.80
2018-05-11T15:02:12.528Z,26.70
2018-05-11T15:04:39.967Z,26.50
2018-05-11T15:07:07.415Z,26.20
2018-05-11T15:09:34.843Z,25.90
2018-05-11T15:12:02.293Z,25.60
2018-05-11T15:14:29.739Z,25.50
2018-05-11T15:16:57.228Z,25.20
2018-05-11T15:19:24.680Z,24.80
2018-05-11T15:21:52.123Z,24.50
2018-05-11T15:24:19.578Z,24.40
2018-05-11T15:26:46.999Z,24.20
2018-05-11T15:29:14.524Z,24.20
2018-05-11T15:31:41.993Z,24.20
2018-05-11T15:34:09.430Z,24.20
2018-05-11T15:36:36.887Z,24.30
2018-05-11T15:39:04.370Z,24.40
2018-05-11T15:41:31.845Z,24.40
2018-05-11T15:44:00.200Z,24.40
2018-05-11T15:46:27.627Z,24.40
2018-05-11T15:48:55.069Z,24.30
2018-05-11T15:51:22.530Z,24.40
2018-05-11T15:53:49.967Z,24.30
2018-05-11T15:56:17.414Z,24.30
2018-05-11T15:58:44.848Z,24.30
2018-05-11T16:01:12.360Z,24.30
2018-05-11T16:03:39.807Z,24.30
2018-05-11T16:06:07.236Z,24.30
2018-05-11T16:08:34.825Z,24.30
2018-05-11T16:11:02.279Z,24.30
2018-05-11T16:13:29.712Z,24.20
2018-05-11T16:15:57.923Z,24.00
2018-05-11T16:18:25.384Z,23.90
2018-05-11T16:20:52.842Z,23.80
2018-05-11T16:23:20.283Z,23.70
2018-05-11T16:25:47.715Z,23.70
2018-05-11T16:28:15.201Z,23.70
2018-05-11T16:30:42.633Z,23.60
2018-05-11T16:33:10.176Z,23.50
2018-05-11T16:35:37.633Z,23.40
2018-05-11T16:38:05.071Z,23.50
2018-05-11T16:40:32.602Z,23.50
2018-05-11T16:42:59.947Z,23.50
2018-05-11T16:45:28.172Z,23.50
2018-05-11T16:47:55.600Z,23.40
2018-05-11T16:50:23.042Z,23.50
2018-05-11T16:52:50.488Z,23.50
2018-05-11T16:55:17.995Z,23.50
2018-05-11T16:57:45.388Z,23.40
2018-05-11T17:00:12.819Z,23.40
2018-05-11T17:02:40.254Z,23.30
2018-05-11T17:05:07.705Z,23.20
2018-05-11T17:07:35.177Z,23.10
2018-05-11T17:10:02.638Z,23.10
2018-05-11T17:12:30.236Z,23.00
2018-05-11T17:14:57.896Z,23.00
2018-05-11T17:17:25.699Z,22.90
2018-05-11T17:19:53.250Z,22.90
2018-05-11T17:22:20.727Z,22.80
2018-05-11T17:24:48.172Z,22.70
2018-05-11T17:27:15.612Z,22.70
2018-05-11T17:29:44.248Z,22.60
2018-05-11T17:32:11.865Z,22.50
2018-05-11T17:34:40.424Z,22.40
2018-05-11T17:37:07.860Z,22.30
2018-05-11T17:39:35.296Z,22.30
2018-05-11T17:42:02.747Z,22.30
2018-05-11T17:44:30.205Z,22.20
2018-05-11T17:46:58.443Z,21.90
2018-05-11T17:49:25.897Z,21.80
2018-05-11T17:51:53.359Z,21.80
2018-05-11T17:54:21.023Z,21.80
2018-05-11T17:56:48.494Z,21.80
2018-05-11T17:59:15.957Z,21.70
2018-05-11T18:01:43.388Z,21.70
2018-05-11T18:04:10.823Z,21.70
2018-05-11T18:06:38.308Z,21.70
2018-05-11T18:09:05.726Z,21.60
2018-05-11T18:11:33.178Z,21.60
2018-05-11T18:14:00.617Z,21.50
2018-05-11T18:16:28.043Z,21.40
2018-05-11T18:18:55.576Z,21.40
2018-05-11T18:21:23.101Z,21.30
2018-05-11T18:23:50.543Z,21.10
2018-05-11T18:26:18.015Z,21.10
2018-05-11T18:28:45.457Z,21.00
2018-05-11T18:31:13.040Z,20.90
2018-05-11T18:33:40.509Z,20.90
2018-05-11T18:36:08.300Z,20.90
2018-05-11T18:38:35.741Z,20.90
2018-05-11T18:41:03.609Z,20.90
2018-05-11T18:43:31.056Z,20.90
2018-05-11T18:45:58.497Z,20.90
2018-05-11T18:48:26.025Z,20.90
2018-05-11T18:50:53.858Z,20.90
2018-05-11T18:53:21.450Z,20.80
2018-05-11T18:55:48.804Z,20.80
2018-05-11T18:58:16.265Z,20.70
2018-05-11T19:00:43.712Z,20.70
2018-05-11T19:03:11.179Z,20.60
2018-05-11T19:05:38.627Z,20.60
2018-05-11T19:08:06.100Z,20.50
2018-05-11T19:10:33.573Z,20.40
2018-05-11T19:13:01.023Z,20.30
2018-05-11T19:15:28.492Z,20.20
2018-05-11T19:17:56.014Z,20.10
2018-05-11T19:20:23.417Z,20.00
2018-05-11T19:22:50.851Z,19.90
2018-05-11T19:25:18.309Z,19.80
2018-05-11T19:27:46.675Z,19.70
2018-05-11T19:30:14.140Z,19.70
2018-05-11T19:32:41.576Z,19.60
2018-05-11T19:35:09.071Z,19.50
2018-05-11T19:37:36.534Z,19.50
2018-05-11T19:40:03.988Z,19.50
2018-05-11T19:42:31.455Z,19.50
2018-05-11T19:44:58.913Z,19.40
2018-05-11T19:47:26.369Z,19.40
2018-05-11T19:49:53.983Z,19.40
2018-05-11T19:52:21.439Z,19.40
2018-05-11T19:54:48.913Z,19.50
2018-05-11T19:57:16.382Z,19.50
2018-05-11T19:59:43.903Z,19.50
2018-05-11T20:02:11.360Z,19.40
2018-05-11T20:04:38.836Z,19.40
2018-05-11T20:07:06.252Z,19.40
2018-05-11T20:09:33.699Z,19.30
2018-05-11T20:12:01.153Z,19.20
2018-05-11T20:14:29.355Z,19.00
2018-05-11T20:16:56.810Z,18.90
2018-05-11T20:19:24.241Z,18.90
2018-05-11T20:21:51.802Z,18.80
2018-05-11T20:24:19.241Z,18.80
2018-05-11T20:26:46.678Z,18.70
2018-05-11T20:29:14.147Z,18.60
2018-05-11T20:31:41.586Z,18.60
2018-05-11T20:34:09.064Z,18.50
2018-05-11T20:36:36.507Z,18.50
2018-05-11T20:39:03.946Z,18.50
2018-05-11T20:41:31.438Z,18.40
2018-05-11T20:43:59.328Z,18.30
2018-05-11T20:46:26.823Z,18.20
2018-05-11T20:48:54.269Z,18.20
2018-05-11T20:51:21.729Z,18.20
2018-05-11T20:53:49.181Z,18.10
2018-05-11T20:56:16.612Z,18.10
2018-05-11T20:58:44.137Z,18.00
2018-05-11T21:01:11.584Z,18.00
2018-05-11T21:03:39.058Z,18.00
2018-05-11T21:06:06.504Z,17.90
2018-05-11T21:08:34.121Z,17.80
2018-05-11T21:11:01.803Z,17.80
2018-05-11T21:13:29.257Z,17.70
2018-05-11T21:15:56.715Z,17.60
2018-05-11T21:18:24.251Z,17.60
2018-05-11T21:20:51.704Z,17.50
2018-05-11T21:23:19.155Z,17.50
2018-05-11T21:25:46.590Z,17.40
2018-05-11T21:28:14.069Z,17.40
2018-05-11T21:30:41.511Z,17.30
2018-05-11T21:33:08.964Z,17.30
2018-05-11T21:35:36.421Z,17.20
2018-05-11T21:38:03.866Z,17.20
2018-05-11T21:40:31.341Z,17.10
2018-05-11T21:42:58.848Z,17.00
2018-05-11T21:45:26.659Z,17.00
2018-05-11T21:47:54.118Z,16.90
2018-05-11T21:50:21.568Z,16.90
2018-05-11T21:52:49.083Z,16.80
2018-05-11T21:55:16.556Z,16.80
2018-05-11T21:57:43.995Z,16.80
2018-05-11T22:00:11.456Z,16.70
2018-05-11T22:02:38.884Z,16.60
2018-05-11T22:05:06.325Z,16.50
2018-05-11T22:07:33.786Z,16.50
2018-05-11T22:10:01.219Z,16.40
2018-05-11T22:12:28.667Z,16.40
2018-05-11T22:14:56.249Z,16.40
2018-05-11T22:17:23.704Z,16.30
2018-05-11T22:19:51.234Z,16.30
2018-05-11T22:22:18.676Z,16.20
2018-05-11T22:24:46.122Z,16.10
2018-05-11T22:27:13.576Z,16.10
2018-05-11T22:29:41.019Z,16.00
2018-05-11T22:32:08.502Z,16.00
2018-05-11T22:34:36.096Z,16.00
2018-05-11T22:37:03.556Z,15.90
2018-05-11T22:39:30.997Z,15.90
2018-05-11T22:41:59.243Z,15.80
2018-05-11T22:44:26.681Z,15.80
2018-05-11T22:46:54.116Z,15.80
2018-05-11T22:49:21.588Z,15.80
2018-05-11T22:51:49.058Z,15.80
2018-05-11T22:54:16.521Z,15.80
2018-05-11T22:56:43.951Z,15.70
2018-05-11T22:59:11.404Z,15.70
2018-05-11T23:01:39.226Z,15.70
2018-05-11T23:04:06.687Z,15.60
2018-05-11T23:06:34.165Z,15.60
2018-05-11T23:09:01.601Z,15.50
2018-05-11T23:11:29.060Z,15.40
2018-05-11T23:13:56.517Z,15.40
2018-05-11T23:16:24.067Z,15.30
2018-05-11T23:18:51.512Z,15.30
2018-05-11T23:21:19.021Z,15.30
2018-05-11T23:23:46.440Z,15.20
2018-05-11T23:26:13.883Z,15.20
2018-05-11T23:28:41.329Z,15.10
2018-05-11T23:31:08.775Z,15.10
2018-05-11T23:33:36.226Z,15.00
2018-05-11T23:36:03.699Z,15.00
2018-05-11T23:38:31.169Z,14.90
2018-05-11T23:40:58.634Z,14.80
2018-05-11T23:43:26.107Z,14.70
2018-05-11T23:45:53.943Z,14.70
2018-05-11T23:48:21.376Z,14.70
2018-05-11T23:50:48.901Z,14.70
2018-05-11T23:53:16.340Z,14.70
2018-05-11T23:55:43.802Z,14.70
2018-05-11T23:58:11.266Z,14.60
